Time;durP1;ratioP1;P1;durP2;ratioP2;P2;SDS_P1;SDS_P2;PMS_P1;PMS_P2;Temp;Humidity;BMP_temperature;BMP_pressure;BME280_temperature;BME280_humidity;BME280_pressure;Samples;Min_cycle;Max_cycle;Signal;HPM_P1;HPM_P2
2022/12/15 00:39:03;;;;;;;;;;;18.80;79.60;;;;;;5075344;28;19915;-46
2022/12/15 00:41:28;;;;;;;;;;;18.80;79.00;;;;;;5075411;28;19908;-50
2022/12/15 00:43:54;;;;;;;;;;;18.80;79.00;;;;;;5075126;28;19998;-48
2022/12/15 00:50:50;;;;;;;;;;;18.80;79.10;;;;;;5075162;28;19939;-46
2022/12/15 01:21:57;;;;;;;;;;;18.90;79.30;;;;;;5074654;28;19919;-46
2022/12/15 01:24:23;;;;;;;;;;;18.90;79.20;;;;;;5074344;28;19998;-46
2022/12/15 01:26:48;;;;;;;;;;;19.00;79.10;;;;;;5074671;28;19916;-46
2022/12/15 01:29:14;;;;;;;;;;;19.00;79.30;;;;;;5074970;28;19909;-50
2022/12/15 01:31:40;;;;;;;;;;;19.00;79.20;;;;;;5074607;28;20271;-47
2022/12/15 01:34:05;;;;;;;;;;;19.00;79.20;;;;;;5074158;28;19979;-47
2022/12/15 01:36:30;;;;;;;;;;;19.00;79.10;;;;;;5090212;28;19908;-46
2022/12/15 01:38:56;;;;;;;;;;;19.00;79.10;;;;;;5074450;28;19909;-48
2022/12/15 01:41:21;;;;;;;;;;;19.00;79.20;;;;;;5074416;28;20376;-47
2022/12/15 01:43:47;;;;;;;;;;;19.00;79.30;;;;;;5074111;28;19919;-47
2022/12/15 01:49:27;;;;;;;;;;;18.90;79.40;;;;;;5074397;28;19965;-48
2022/12/15 01:51:55;;;;;;;;;;;18.80;79.70;;;;;;5074044;28;19943;-45
2022/12/15 01:54:25;;;;;;;;;;;18.70;79.80;;;;;;5074609;28;19908;-46
2022/12/15 01:56:53;;;;;;;;;;;18.70;80.00;;;;;;5074024;28;20355;-44
2022/12/15 01:59:25;;;;;;;;;;;18.70;80.00;;;;;;5074070;28;19909;-46
2022/12/15 02:01:51;;;;;;;;;;;18.70;80.10;;;;;;5073760;28;20274;-48
2022/12/15 02:04:18;;;;;;;;;;;18.70;80.10;;;;;;5074128;28;19913;-46
2022/12/15 02:06:43;;;;;;;;;;;18.70;80.10;;;;;;5073844;28;19909;-44
2022/12/15 02:09:09;;;;;;;;;;;18.70;80.10;;;;;;5073841;28;19915;-44
2022/12/15 02:11:48;;;;;;;;;;;18.70;80.20;;;;;;5073813;28;19908;-48
2022/12/15 02:14:34;;;;;;;;;;;18.70;80.20;;;;;;5074322;28;19955;-46
2022/12/15 02:17:04;;;;;;;;;;;18.60;80.20;;;;;;5048522;28;19915;-48
2022/12/15 02:19:29;;;;;;;;;;;18.70;80.30;;;;;;5073987;28;19908;-46
2022/12/15 02:22:17;;;;;;;;;;;18.70;80.30;;;;;;5074034;28;19969;-44
2022/12/15 02:24:49;;;;;;;;;;;18.60;80.40;;;;;;5073039;28;19912;-47
2022/12/15 02:27:15;;;;;;;;;;;18.60;80.30;;;;;;5074005;28;19969;-44
2022/12/15 02:29:46;;;;;;;;;;;18.60;80.40;;;;;;5077352;28;19909;-49
2022/12/15 02:32:14;;;;;;;;;;;18.60;80.30;;;;;;5078340;28;19916;-47
2022/12/15 02:34:43;;;;;;;;;;;18.60;80.40;;;;;;5077956;28;19928;-47
2022/12/15 02:37:16;;;;;;;;;;;18.60;80.40;;;;;;5077927;28;19909;-44
2022/12/15 02:39:42;;;;;;;;;;;18.60;80.60;;;;;;5077629;28;19915;-45
2022/12/15 02:42:08;;;;;;;;;;;18.70;80.50;;;;;;5077529;28;19916;-44
2022/12/15 02:44:36;;;;;;;;;;;18.70;80.40;;;;;;5077519;28;20364;-47
2022/12/15 02:47:08;;;;;;;;;;;18.70;80.90;;;;;;5077706;28;20042;-45
2022/12/15 02:49:49;;;;;;;;;;;18.70;80.30;;;;;;5077647;28;19995;-46
2022/12/15 02:52:14;;;;;;;;;;;18.80;80.20;;;;;;5077617;28;20355;-47
2022/12/15 02:54:48;;;;;;;;;;;18.80;80.20;;;;;;5077301;28;19970;-44
2022/12/15 02:57:23;;;;;;;;;;;18.90;80.10;;;;;;5077300;28;19944;-47
2022/12/15 02:59:54;;;;;;;;;;;18.90;79.90;;;;;;5077465;28;19909;-44
2022/12/15 03:02:21;;;;;;;;;;;19.00;79.70;;;;;;5077177;28;19912;-44
2022/12/15 03:04:47;;;;;;;;;;;19.10;79.70;;;;;;5059652;28;19912;-44
2022/12/15 03:07:13;;;;;;;;;;;19.10;79.60;;;;;;5077570;28;19912;-46
2022/12/15 03:09:38;;;;;;;;;;;19.10;79.60;;;;;;5076945;28;19973;-47
2022/12/15 03:12:04;;;;;;;;;;;19.10;79.60;;;;;;5077185;28;19915;-44
2022/12/15 03:14:29;;;;;;;;;;;19.00;79.60;;;;;;5077217;28;19909;-45
2022/12/15 03:16:55;;;;;;;;;;;19.00;79.70;;;;;;5076848;28;19912;-49
2022/12/15 03:19:20;;;;;;;;;;;18.90;79.70;;;;;;5077115;28;20271;-44
2022/12/15 03:21:46;;;;;;;;;;;19.00;79.90;;;;;;5076963;28;19951;-48
2022/12/15 03:24:11;;;;;;;;;;;18.90;79.80;;;;;;5077092;28;19912;-46
2022/12/15 03:26:37;;;;;;;;;;;18.90;80.10;;;;;;5076683;28;19912;-47
2022/12/15 03:29:02;;;;;;;;;;;18.90;80.10;;;;;;5076679;28;19916;-45
2022/12/15 03:31:28;;;;;;;;;;;18.80;80.20;;;;;;5077150;28;19908;-45
2022/12/15 03:33:54;;;;;;;;;;;18.80;80.30;;;;;;5076479;28;19920;-45
2022/12/15 03:36:21;;;;;;;;;;;18.80;80.30;;;;;;5076451;28;20326;-45
2022/12/15 03:38:47;;;;;;;;;;;18.80;80.40;;;;;;5076800;28;19908;-46
2022/12/15 03:41:12;;;;;;;;;;;18.80;80.50;;;;;;5076399;28;20275;-46
2022/12/15 03:43:38;;;;;;;;;;;18.80;80.50;;;;;;5076605;28;19962;-48
2022/12/15 03:46:03;;;;;;;;;;;18.70;80.50;;;;;;5076634;28;20369;-47
2022/12/15 03:48:29;;;;;;;;;;;18.70;80.50;;;;;;5076662;28;19986;-47
2022/12/15 03:50:54;;;;;;;;;;;18.70;80.60;;;;;;5076618;28;19913;-48
2022/12/15 03:53:20;;;;;;;;;;;18.70;80.70;;;;;;5076440;28;19908;-46
2022/12/15 03:55:45;;;;;;;;;;;18.70;80.80;;;;;;5076454;28;19919;-46
2022/12/15 03:58:11;;;;;;;;;;;18.70;80.80;;;;;;5076416;28;19915;-45
2022/12/15 04:00:36;;;;;;;;;;;18.70;80.80;;;;;;5076383;28;19908;-50
2022/12/15 04:03:02;;;;;;;;;;;18.70;80.90;;;;;;5076205;28;19958;-45
2022/12/15 04:05:29;;;;;;;;;;;18.70;80.80;;;;;;5076638;28;19919;-45
2022/12/15 04:07:56;;;;;;;;;;;18.80;80.80;;;;;;5076006;28;20318;-49
2022/12/15 04:10:22;;;;;;;;;;;18.80;80.70;;;;;;5075916;28;19910;-47
2022/12/15 04:12:48;;;;;;;;;;;18.80;80.60;;;;;;5075803;28;19909;-46
2022/12/15 04:15:14;;;;;;;;;;;18.80;80.50;;;;;;5075806;28;19932;-47
2022/12/15 04:17:39;;;;;;;;;;;18.90;80.50;;;;;;5074770;28;20248;-50
2022/12/15 04:20:08;;;;;;;;;;;18.90;80.30;;;;;;5057982;28;19912;-48
2022/12/15 04:22:37;;;;;;;;;;;19.00;80.30;;;;;;5075872;28;19919;-49
2022/12/15 05:33:32;;;;;;;;;;;18.90;80.90;;;;;;5072736;28;19915;-44
2022/12/15 05:35:58;;;;;;;;;;;18.90;80.70;;;;;;5072631;28;19909;-47
2022/12/15 05:38:23;;;;;;;;;;;19.00;80.70;;;;;;5072155;28;20322;-46
2022/12/15 05:40:49;;;;;;;;;;;19.00;80.50;;;;;;5072308;28;19947;-48
2022/12/15 05:43:14;;;;;;;;;;;19.10;80.50;;;;;;5072198;28;20275;-50
2022/12/15 05:45:39;;;;;;;;;;;19.10;80.40;;;;;;5071860;28;19912;-46
2022/12/15 05:48:05;;;;;;;;;;;19.10;80.30;;;;;;5072762;28;20000;-47
2022/12/15 05:50:30;;;;;;;;;;;19.20;80.30;;;;;;5073969;28;20275;-47
2022/12/15 05:52:56;;;;;;;;;;;19.30;80.30;;;;;;5074109;28;19908;-46
2022/12/15 05:55:22;;;;;;;;;;;19.30;80.00;;;;;;5074012;28;19908;-48
2022/12/15 05:57:51;;;;;;;;;;;19.40;80.00;;;;;;5074014;28;19909;-46
2022/12/15 06:00:17;;;;;;;;;;;19.40;80.00;;;;;;5073620;28;20373;-48
2022/12/15 06:02:42;;;;;;;;;;;19.40;79.80;;;;;;5073108;28;19912;-45
2022/12/15 06:05:08;;;;;;;;;;;19.40;79.90;;;;;;5073921;28;19913;-48
2022/12/15 06:07:33;;;;;;;;;;;19.40;79.90;;;;;;5074297;28;19956;-47
2022/12/15 06:09:59;;;;;;;;;;;19.30;80.00;;;;;;5073744;28;20263;-48
2022/12/15 06:12:24;;;;;;;;;;;19.30;80.10;;;;;;5073518;28;19908;-46
2022/12/15 06:14:50;;;;;;;;;;;19.20;80.20;;;;;;5073734;28;20022;-49
2022/12/15 06:17:15;;;;;;;;;;;19.20;80.30;;;;;;5073769;28;20003;-48
2022/12/15 06:19:40;;;;;;;;;;;19.10;80.40;;;;;;5073740;28;19970;-46
2022/12/15 06:22:06;;;;;;;;;;;19.10;80.60;;;;;;5073766;28;19912;-48
2022/12/15 06:24:31;;;;;;;;;;;19.00;80.60;;;;;;5073503;28;19944;-47
2022/12/15 06:26:58;;;;;;;;;;;19.00;80.70;;;;;;5073493;28;19962;-45
2022/12/15 06:29:23;;;;;;;;;;;18.90;80.80;;;;;;5073554;28;19908;-49
2022/12/15 06:31:49;;;;;;;;;;;19.00;81.00;;;;;;5074004;28;20287;-44
2022/12/15 06:34:15;;;;;;;;;;;19.00;81.00;;;;;;5055019;28;19920;-49
2022/12/15 06:36:40;;;;;;;;;;;18.90;81.10;;;;;;5073183;28;19908;-47
2022/12/15 06:39:08;;;;;;;;;;;18.90;81.00;;;;;;5073286;28;20449;-48
2022/12/15 06:41:33;;;;;;;;;;;18.90;81.10;;;;;;5073425;28;19916;-46
2022/12/15 06:43:59;;;;;;;;;;;19.00;81.20;;;;;;5073928;28;19912;-48
2022/12/15 06:46:25;;;;;;;;;;;18.90;81.10;;;;;;5073456;28;20355;-46
2022/12/15 06:48:52;;;;;;;;;;;19.00;81.10;;;;;;5073270;28;20256;-48
2022/12/15 06:51:17;;;;;;;;;;;19.00;81.00;;;;;;5073505;28;20366;-45
2022/12/15 06:53:51;;;;;;;;;;;19.10;80.90;;;;;;5073146;28;19909;-45
2022/12/15 06:56:19;;;;;;;;;;;19.10;80.80;;;;;;5073332;28;19955;-45
2022/12/15 06:58:46;;;;;;;;;;;19.20;80.70;;;;;;5073029;28;19908;-46
2022/12/15 07:01:11;;;;;;;;;;;19.20;80.60;;;;;;5072068;28;20268;-46
2022/12/15 07:03:37;;;;;;;;;;;19.20;80.60;;;;;;5084138;28;19916;-49
2022/12/15 07:06:04;;;;;;;;;;;19.30;80.30;;;;;;5077040;28;19916;-45
2022/12/15 07:08:30;;;;;;;;;;;19.30;80.40;;;;;;5091927;28;20374;-49
2022/12/15 07:10:55;;;;;;;;;;;19.30;80.30;;;;;;5091914;28;19912;-47
2022/12/15 07:13:21;;;;;;;;;;;19.30;80.40;;;;;;5092009;28;19908;-49
2022/12/15 07:15:48;;;;;;;;;;;19.20;80.40;;;;;;5095291;28;20365;-47
2022/12/15 07:18:15;;;;;;;;;;;19.20;80.50;;;;;;5096199;28;19995;-46
2022/12/15 07:20:40;;;;;;;;;;;19.10;80.50;;;;;;5096659;28;20000;-44
2022/12/15 07:23:08;;;;;;;;;;;19.10;80.70;;;;;;5078722;28;20427;-47
2022/12/15 07:25:37;;;;;;;;;;;19.10;80.80;;;;;;5078670;28;19916;-50
2022/12/15 07:28:03;;;;;;;;;;;19.00;80.80;;;;;;5096332;28;20010;-47
2022/12/15 07:30:28;;;;;;;;;;;19.00;81.10;;;;;;5110212;28;20318;-48
2022/12/15 07:32:54;;;;;;;;;;;19.00;81.20;;;;;;5093336;28;19981;-41
2022/12/15 07:35:20;;;;;;;;;;;19.00;81.70;;;;;;5103091;28;19963;-44
2022/12/15 07:37:46;;;;;;;;;;;19.10;82.00;;;;;;5117384;28;19912;-42
2022/12/15 07:40:11;;;;;;;;;;;19.00;81.40;;;;;;5079244;28;19951;-43
2022/12/15 07:42:37;;;;;;;;;;;19.00;81.10;;;;;;5096587;28;19961;-42
2022/12/15 07:45:04;;;;;;;;;;;19.00;81.00;;;;;;5090211;28;19939;-43
2022/12/15 07:47:29;;;;;;;;;;;19.00;81.20;;;;;;5114742;28;19911;-42
2022/12/15 07:49:55;;;;;;;;;;;19.10;81.20;;;;;;5115410;28;20513;-43
2022/12/15 07:52:20;;;;;;;;;;;19.10;81.10;;;;;;5106432;28;19916;-43
2022/12/15 07:54:46;;;;;;;;;;;19.10;81.00;;;;;;5099035;28;20305;-44
2022/12/15 07:57:11;;;;;;;;;;;19.10;81.30;;;;;;5086765;28;19913;-40
2022/12/15 07:59:37;;;;;;;;;;;19.20;80.60;;;;;;5094066;28;20304;-40
2022/12/15 08:02:03;;;;;;;;;;;19.30;80.80;;;;;;5104590;28;19912;-43
2022/12/15 08:04:29;;;;;;;;;;;19.40;80.60;;;;;;5105187;28;20370;-43
2022/12/15 08:06:54;;;;;;;;;;;19.40;80.40;;;;;;5116373;28;19918;-43
2022/12/15 08:09:19;;;;;;;;;;;19.50;80.40;;;;;;5104430;28;19918;-42
2022/12/15 08:11:45;;;;;;;;;;;19.50;80.20;;;;;;5104332;28;19920;-43
2022/12/15 08:14:11;;;;;;;;;;;19.60;80.10;;;;;;5107341;28;19915;-43
2022/12/15 08:16:37;;;;;;;;;;;19.60;80.00;;;;;;5106874;28;19916;-43
2022/12/15 08:19:04;;;;;;;;;;;19.60;80.00;;;;;;5094197;28;19912;-48
2022/12/15 08:21:30;;;;;;;;;;;19.60;80.00;;;;;;5097181;28;20010;-46
2022/12/15 08:23:56;;;;;;;;;;;19.60;80.00;;;;;;5094641;28;19973;-43
2022/12/15 08:26:22;;;;;;;;;;;19.60;80.00;;;;;;5094868;28;19912;-43
2022/12/15 08:28:48;;;;;;;;;;;19.60;80.40;;;;;;5094831;28;20316;-46
2022/12/15 08:31:21;;;;;;;;;;;19.60;80.40;;;;;;5095729;28;20400;-43
2022/12/15 08:33:46;;;;;;;;;;;19.60;80.30;;;;;;5109801;28;19920;-42
2022/12/15 08:36:13;;;;;;;;;;;19.60;80.20;;;;;;5111376;28;19939;-42
2022/12/15 08:38:39;;;;;;;;;;;19.60;80.20;;;;;;5095419;28;19939;-43
2022/12/15 08:41:13;;;;;;;;;;;19.60;80.20;;;;;;5097362;28;19985;-44
2022/12/15 08:43:39;;;;;;;;;;;19.50;80.30;;;;;;5105907;28;19951;-43
2022/12/15 08:46:04;;;;;;;;;;;19.50;80.40;;;;;;5094308;28;20371;-43
2022/12/15 08:48:30;;;;;;;;;;;19.50;80.40;;;;;;5095427;28;19909;-43
2022/12/15 08:50:57;;;;;;;;;;;19.50;80.50;;;;;;5105508;28;20255;-43
2022/12/15 08:53:23;;;;;;;;;;;19.50;80.40;;;;;;5095374;28;20317;-45
2022/12/15 08:55:48;;;;;;;;;;;19.50;80.40;;;;;;5095139;28;19915;-44
2022/12/15 08:58:14;;;;;;;;;;;19.50;80.40;;;;;;5076470;28;19913;-46
2022/12/15 09:00:40;;;;;;;;;;;19.60;80.40;;;;;;5092751;28;19919;-43
2022/12/15 09:03:05;;;;;;;;;;;19.60;80.90;;;;;;5100031;28;19920;-42
2022/12/15 09:05:33;;;;;;;;;;;19.70;80.30;;;;;;5093321;28;19916;-45
2022/12/15 09:07:59;;;;;;;;;;;19.70;80.30;;;;;;5110058;28;19912;-44
2022/12/15 09:10:24;;;;;;;;;;;19.70;80.30;;;;;;5097436;28;19919;-42
2022/12/15 09:12:49;;;;;;;;;;;19.70;80.40;;;;;;5108365;28;19912;-43
2022/12/15 09:15:16;;;;;;;;;;;19.70;80.40;;;;;;5115083;28;20311;-43
2022/12/15 09:17:41;;;;;;;;;;;19.60;80.50;;;;;;5103184;28;20362;-42
2022/12/15 09:20:08;;;;;;;;;;;19.70;80.40;;;;;;5115080;28;19915;-42
2022/12/15 09:22:33;;;;;;;;;;;19.70;80.30;;;;;;5094592;28;19916;-41
2022/12/15 09:24:59;;;;;;;;;;;19.70;80.20;;;;;;5094431;28;20306;-42
2022/12/15 09:27:24;;;;;;;;;;;19.70;80.30;;;;;;5095250;28;19935;-42
2022/12/15 09:29:50;;;;;;;;;;;19.70;80.30;;;;;;5075110;28;19912;-45
2022/12/15 09:32:15;;;;;;;;;;;19.80;80.30;;;;;;5096222;28;19912;-42
2022/12/15 09:34:41;;;;;;;;;;;19.80;80.30;;;;;;5092105;28;20470;-43
2022/12/15 09:37:06;;;;;;;;;;;19.80;80.20;;;;;;5113811;28;19908;-42
2022/12/15 09:39:31;;;;;;;;;;;19.80;80.10;;;;;;5093536;28;20166;-43
2022/12/15 09:41:58;;;;;;;;;;;19.80;80.10;;;;;;5113263;28;19908;-44
2022/12/15 09:44:25;;;;;;;;;;;19.80;80.40;;;;;;5076174;28;19916;-42
2022/12/15 09:46:56;;;;;;;;;;;19.80;80.40;;;;;;5106459;28;20020;-46
2022/12/15 09:49:24;;;;;;;;;;;19.80;80.40;;;;;;5114817;28;19958;-46
2022/12/15 09:51:59;;;;;;;;;;;19.80;80.40;;;;;;5097032;28;19941;-45
2022/12/15 09:54:29;;;;;;;;;;;19.80;80.40;;;;;;5078098;28;20335;-43
2022/12/15 09:56:56;;;;;;;;;;;19.80;80.30;;;;;;5114587;28;19912;-42
2022/12/15 09:59:25;;;;;;;;;;;19.80;80.30;;;;;;5109514;28;19923;-42
2022/12/15 10:02:22;;;;;;;;;;;19.80;80.30;;;;;;5098130;28;19919;-43
2022/12/15 10:04:56;;;;;;;;;;;19.80;80.90;;;;;;5049362;28;20290;-42
2022/12/15 10:07:35;;;;;;;;;;;19.80;80.30;;;;;;5073660;28;19947;-43
2022/12/15 10:10:24;;;;;;;;;;;19.80;80.30;;;;;;5081087;28;19957;-44
2022/12/15 10:12:52;;;;;;;;;;;19.80;80.50;;;;;;5067560;28;19908;-43
2022/12/15 10:15:17;;;;;;;;;;;19.80;80.50;;;;;;5092945;28;19912;-45
2022/12/15 10:17:59;;;;;;;;;;;19.80;80.50;;;;;;5093898;28;19912;-45
2022/12/15 10:20:26;;;;;;;;;;;19.80;80.50;;;;;;5098385;28;19912;-48
2022/12/15 10:22:52;;;;;;;;;;;19.80;80.70;;;;;;5114324;28;19911;-47
2022/12/15 10:25:22;;;;;;;;;;;19.80;80.60;;;;;;5103335;28;20053;-43
2022/12/15 10:28:16;;;;;;;;;;;19.80;80.50;;;;;;5098212;28;20304;-44
2022/12/15 10:30:55;;;;;;;;;;;19.80;80.60;;;;;;5093678;28;19971;-44
2022/12/15 10:33:25;;;;;;;;;;;19.80;80.50;;;;;;5108268;28;20323;-45
2022/12/15 10:35:51;;;;;;;;;;;19.80;80.40;;;;;;5104450;28;20405;-45
2022/12/15 10:38:23;;;;;;;;;;;19.80;80.50;;;;;;5095292;28;19958;-44
2022/12/15 10:40:50;;;;;;;;;;;19.90;80.60;;;;;;5090425;28;20411;-47
2022/12/15 10:43:28;;;;;;;;;;;19.80;80.50;;;;;;5083701;28;20266;-47
2022/12/15 10:46:13;;;;;;;;;;;19.80;80.50;;;;;;5092155;28;20298;-43
2022/12/15 10:48:43;;;;;;;;;;;19.80;80.60;;;;;;5071592;28;19912;-43
2022/12/15 10:51:29;;;;;;;;;;;19.80;80.70;;;;;;5097679;28;19908;-44
2022/12/15 10:53:57;;;;;;;;;;;19.80;80.70;;;;;;5097652;28;19916;-46
2022/12/15 10:56:24;;;;;;;;;;;19.70;80.80;;;;;;5097725;28;20002;-46
2022/12/15 10:58:52;;;;;;;;;;;19.70;80.80;;;;;;5097864;28;19950;-45
2022/12/15 11:01:19;;;;;;;;;;;19.70;81.00;;;;;;5097697;28;19951;-45
2022/12/15 11:03:45;;;;;;;;;;;19.70;81.00;;;;;;5097519;28;20370;-48
2022/12/15 11:06:24;;;;;;;;;;;19.70;81.50;;;;;;5097319;28;19912;-42
2022/12/15 11:08:51;;;;;;;;;;;19.70;81.00;;;;;;5100474;28;19920;-43
2022/12/15 11:14:15;;;;;;;;;;;19.80;80.90;;;;;;5097412;28;20365;-42
2022/12/15 11:16:47;;;;;;;;;;;19.80;80.90;;;;;;5097256;28;19908;-43
2022/12/15 11:19:15;;;;;;;;;;;19.90;80.90;;;;;;5097202;28;19908;-47
2022/12/15 11:21:46;;;;;;;;;;;19.90;80.80;;;;;;5096807;28;20021;-45
2022/12/15 11:24:14;;;;;;;;;;;19.90;80.70;;;;;;5097178;28;19916;-43
2022/12/15 11:26:52;;;;;;;;;;;19.90;80.70;;;;;;5103685;28;19979;-45
2022/12/15 11:29:33;;;;;;;;;;;20.00;80.70;;;;;;5102674;28;19908;-43
2022/12/15 11:31:59;;;;;;;;;;;20.00;80.70;;;;;;5109422;28;19919;-49
2022/12/15 11:34:25;;;;;;;;;;;20.00;80.60;;;;;;5097206;28;19920;-45
2022/12/15 11:37:18;;;;;;;;;;;20.00;80.60;;;;;;5116959;28;19914;-45
2022/12/15 11:40:02;;;;;;;;;;;20.00;80.60;;;;;;5098487;28;19954;-48
2022/12/15 11:42:33;;;;;;;;;;;20.00;80.50;;;;;;5115927;28;19927;-47
2022/12/15 11:45:07;;;;;;;;;;;20.00;80.50;;;;;;5097895;28;19939;-46
2022/12/15 11:47:32;;;;;;;;;;;20.00;80.50;;;;;;5096862;28;19952;-44
2022/12/15 11:49:58;;;;;;;;;;;19.90;80.50;;;;;;5100705;28;20001;-44
2022/12/15 11:52:56;;;;;;;;;;;19.90;80.60;;;;;;5078148;28;20358;-44
2022/12/15 11:55:27;;;;;;;;;;;19.90;80.80;;;;;;5034945;28;20281;-48
2022/12/15 11:58:07;;;;;;;;;;;19.80;80.90;;;;;;5084421;28;19919;-51
2022/12/15 12:00:37;;;;;;;;;;;19.80;81.00;;;;;;5094829;28;20255;-46
2022/12/15 12:03:09;;;;;;;;;;;19.70;81.00;;;;;;5094235;28;19916;-49
2022/12/15 12:05:40;;;;;;;;;;;19.70;81.20;;;;;;5098385;28;20282;-46
2022/12/15 12:08:08;;;;;;;;;;;19.80;81.20;;;;;;5116122;28;19912;-48
2022/12/15 12:10:52;;;;;;;;;;;19.70;78.30;;;;;;5105465;28;20358;-44
2022/12/15 12:13:18;;;;;;;;;;;18.90;72.90;;;;;;5116554;28;19973;-43
2022/12/15 12:15:53;;;;;;;;;;;19.10;77.10;;;;;;5098793;28;20368;-45
2022/12/15 12:18:21;;;;;;;;;;;19.30;78.80;;;;;;5095888;28;19912;-47
2022/12/15 12:20:52;;;;;;;;;;;19.30;79.70;;;;;;5094529;28;19912;-49
2022/12/15 12:23:26;;;;;;;;;;;19.40;80.00;;;;;;5095800;28;20275;-45
2022/12/15 12:26:14;;;;;;;;;;;19.40;80.10;;;;;;5116020;28;20282;-45
2022/12/15 12:28:51;;;;;;;;;;;19.50;80.30;;;;;;5107268;28;20428;-47
2022/12/15 12:31:24;;;;;;;;;;;19.40;80.40;;;;;;5114188;28;19950;-47
2022/12/15 12:33:52;;;;;;;;;;;19.40;80.60;;;;;;5104173;28;20251;-46
2022/12/15 12:36:18;;;;;;;;;;;19.40;80.60;;;;;;5092714;28;19918;-49
2022/12/15 12:38:48;;;;;;;;;;;19.40;80.80;;;;;;5093438;28;19999;-44
2022/12/15 12:41:22;;;;;;;;;;;19.40;80.90;;;;;;5095632;28;19919;-45
2022/12/15 12:43:54;;;;;;;;;;;19.30;81.00;;;;;;5095531;28;19919;-45
2022/12/15 12:46:25;;;;;;;;;;;19.40;81.10;;;;;;5094504;28;20002;-49
2022/12/15 12:48:57;;;;;;;;;;;19.30;81.10;;;;;;5113271;28;19911;-47
2022/12/15 12:51:26;;;;;;;;;;;19.30;79.50;;;;;;5086794;28;20010;-45
2022/12/15 12:53:52;;;;;;;;;;;19.30;80.50;;;;;;5095503;28;19908;-46
2022/12/15 12:56:35;;;;;;;;;;;19.30;81.20;;;;;;5095151;28;20258;-46
2022/12/15 12:59:06;;;;;;;;;;;19.30;81.20;;;;;;5074310;28;19922;-50
2022/12/15 13:01:33;;;;;;;;;;;19.30;81.30;;;;;;5094842;28;20339;-48
2022/12/15 13:04:06;;;;;;;;;;;19.30;81.30;;;;;;5095138;28;19919;-48
2022/12/15 13:06:34;;;;;;;;;;;19.30;81.20;;;;;;5094649;28;19912;-45
2022/12/15 13:09:20;;;;;;;;;;;19.40;81.20;;;;;;5095883;28;19912;-46
2022/12/15 13:11:52;;;;;;;;;;;19.40;81.10;;;;;;5075950;28;20389;-47
2022/12/15 13:14:19;;;;;;;;;;;19.50;80.90;;;;;;5094537;28;19915;-45
2022/12/15 13:16:45;;;;;;;;;;;19.60;81.30;;;;;;5109536;28;19935;-46
2022/12/15 13:19:11;;;;;;;;;;;19.70;80.60;;;;;;5111441;28;20000;-48
2022/12/15 13:21:43;;;;;;;;;;;19.70;80.40;;;;;;5092545;28;19912;-49
2022/12/15 13:24:21;;;;;;;;;;;19.70;80.40;;;;;;5103382;28;19915;-48
2022/12/15 13:26:46;;;;;;;;;;;19.70;80.40;;;;;;5106352;28;20002;-47
2022/12/15 13:29:13;;;;;;;;;;;19.70;80.40;;;;;;5109968;28;19955;-45
2022/12/15 13:31:43;;;;;;;;;;;19.70;80.40;;;;;;5084244;28;19911;-46
2022/12/15 13:34:11;;;;;;;;;;;19.70;80.50;;;;;;5108877;28;19921;-46
2022/12/15 13:36:37;;;;;;;;;;;19.60;80.60;;;;;;5094310;28;20010;-41
2022/12/15 13:39:03;;;;;;;;;;;19.50;80.60;;;;;;5095653;28;19955;-44
2022/12/15 13:41:29;;;;;;;;;;;19.50;80.80;;;;;;5091793;28;19942;-42
2022/12/15 13:43:56;;;;;;;;;;;19.40;80.90;;;;;;5114808;28;19911;-41
2022/12/15 13:46:23;;;;;;;;;;;19.40;81.00;;;;;;5094436;28;19916;-42
2022/12/15 13:49:05;;;;;;;;;;;19.40;81.10;;;;;;5109145;28;19911;-41
2022/12/15 13:51:36;;;;;;;;;;;19.40;81.20;;;;;;5114240;28;19907;-42
2022/12/15 13:54:08;;;;;;;;;;;19.40;81.30;;;;;;5111054;28;19916;-44
2022/12/15 13:56:47;;;;;;;;;;;19.30;81.30;;;;;;5093012;28;20374;-49
2022/12/15 13:59:18;;;;;;;;;;;19.40;81.40;;;;;;5110631;28;20383;-46
2022/12/15 14:01:50;;;;;;;;;;;19.40;81.50;;;;;;5101882;28;19919;-45
2022/12/15 14:04:15;;;;;;;;;;;19.40;81.40;;;;;;5109350;28;20199;-49
2022/12/15 14:06:47;;;;;;;;;;;19.50;81.40;;;;;;5103836;28;20007;-48
2022/12/15 14:09:14;;;;;;;;;;;19.50;81.30;;;;;;5101669;28;19995;-50
2022/12/15 14:11:40;;;;;;;;;;;19.50;81.20;;;;;;5090099;28;20013;-48
2022/12/15 14:14:13;;;;;;;;;;;19.60;81.10;;;;;;5112296;28;19912;-50
2022/12/15 14:16:38;;;;;;;;;;;19.70;81.30;;;;;;5103336;28;20397;-47
2022/12/15 14:19:07;;;;;;;;;;;19.70;81.00;;;;;;5099548;28;19920;-46
2022/12/15 14:21:33;;;;;;;;;;;19.80;80.90;;;;;;5109022;28;19912;-48
2022/12/15 14:23:59;;;;;;;;;;;19.80;80.80;;;;;;5108603;28;19916;-46
2022/12/15 14:26:30;;;;;;;;;;;19.90;80.70;;;;;;5109741;28;19919;-47
2022/12/15 14:29:00;;;;;;;;;;;19.90;80.50;;;;;;5114381;28;20383;-46
2022/12/15 14:31:26;;;;;;;;;;;19.90;80.60;;;;;;5114973;28;19996;-42
2022/12/15 14:34:11;;;;;;;;;;;19.90;80.60;;;;;;5096911;28;20384;-42
2022/12/15 14:36:38;;;;;;;;;;;19.90;80.60;;;;;;5115496;28;19919;-42
2022/12/15 14:39:06;;;;;;;;;;;19.80;80.70;;;;;;5115243;28;19912;-48
2022/12/15 14:41:34;;;;;;;;;;;19.80;80.70;;;;;;5112155;28;19912;-47
2022/12/15 14:44:04;;;;;;;;;;;19.80;80.90;;;;;;5107782;28;20278;-47
2022/12/15 14:46:29;;;;;;;;;;;19.70;80.90;;;;;;5113140;28;19916;-46
2022/12/15 14:48:57;;;;;;;;;;;19.70;81.10;;;;;;5115069;28;19911;-48
2022/12/15 14:51:23;;;;;;;;;;;19.70;81.30;;;;;;5117941;28;20346;-46
2022/12/15 14:53:50;;;;;;;;;;;19.70;81.60;;;;;;5107730;28;19934;-44
2022/12/15 14:56:18;;;;;;;;;;;19.70;81.70;;;;;;5109980;28;20085;-42
2022/12/15 14:58:52;;;;;;;;;;;19.70;81.70;;;;;;5105679;28;19939;-43
2022/12/15 15:01:23;;;;;;;;;;;19.60;81.20;;;;;;5106797;28;19912;-46
2022/12/15 15:04:02;;;;;;;;;;;19.60;81.70;;;;;;5076454;28;20007;-48
2022/12/15 15:06:30;;;;;;;;;;;19.60;81.80;;;;;;5100425;28;20034;-44
2022/12/15 15:08:55;;;;;;;;;;;19.60;81.80;;;;;;5109408;28;19916;-45
2022/12/15 15:11:28;;;;;;;;;;;19.50;81.90;;;;;;5103254;28;19911;-45
2022/12/15 15:13:55;;;;;;;;;;;19.50;82.10;;;;;;5099128;28;19908;-45
2022/12/15 15:16:20;;;;;;;;;;;19.50;82.10;;;;;;5112628;28;20362;-44
2022/12/15 15:18:50;;;;;;;;;;;19.50;82.10;;;;;;5117085;28;19919;-43
2022/12/15 15:21:25;;;;;;;;;;;19.60;82.00;;;;;;5110090;28;20021;-45
2022/12/15 15:24:09;;;;;;;;;;;19.60;81.90;;;;;;5111781;28;19916;-46
2022/12/15 15:26:35;;;;;;;;;;;19.70;82.00;;;;;;5108250;28;19916;-42
2022/12/15 15:29:00;;;;;;;;;;;19.70;81.90;;;;;;5102687;28;20321;-42
2022/12/15 15:31:28;;;;;;;;;;;19.80;81.80;;;;;;5112527;28;19919;-43
2022/12/15 15:33:57;;;;;;;;;;;19.80;81.60;;;;;;5117021;28;19920;-42
2022/12/15 15:36:27;;;;;;;;;;;19.90;81.50;;;;;;5113881;28;19961;-44
2022/12/15 15:38:52;;;;;;;;;;;19.90;81.30;;;;;;5098572;28;19929;-44
2022/12/15 15:41:19;;;;;;;;;;;20.00;81.30;;;;;;5109650;28;20042;-41
2022/12/15 15:43:46;;;;;;;;;;;20.00;80.20;;;;;;5088592;28;19951;-41
2022/12/15 15:46:22;;;;;;;;;;;20.00;81.00;;;;;;5105118;28;19916;-42
2022/12/15 15:48:49;;;;;;;;;;;19.90;81.10;;;;;;5086586;28;19913;-42
2022/12/15 15:51:15;;;;;;;;;;;19.90;81.10;;;;;;5089006;28;19912;-44
2022/12/15 15:53:40;;;;;;;;;;;19.90;81.10;;;;;;5102945;28;19930;-45
2022/12/15 15:56:08;;;;;;;;;;;19.90;81.80;;;;;;5114136;28;19912;-45
2022/12/15 15:58:34;;;;;;;;;;;19.80;81.30;;;;;;5095767;28;19922;-49
2022/12/15 16:00:59;;;;;;;;;;;19.80;81.40;;;;;;5077833;28;20435;-46
2022/12/15 16:03:25;;;;;;;;;;;19.80;81.50;;;;;;5096351;28;19947;-46
2022/12/15 16:05:50;;;;;;;;;;;19.80;81.60;;;;;;5095878;28;19919;-49
2022/12/15 16:08:18;;;;;;;;;;;19.70;81.50;;;;;;5099942;28;19965;-46
2022/12/15 16:10:46;;;;;;;;;;;19.80;81.70;;;;;;5095811;28;19908;-44
2022/12/15 16:13:13;;;;;;;;;;;19.70;81.60;;;;;;5096009;28;19915;-45
2022/12/15 16:15:38;;;;;;;;;;;19.70;81.60;;;;;;5095508;28;20382;-50
2022/12/15 16:18:04;;;;;;;;;;;19.80;81.60;;;;;;5077831;28;19916;-48
2022/12/15 16:20:29;;;;;;;;;;;19.80;81.70;;;;;;5095868;28;19909;-47
2022/12/15 16:22:59;;;;;;;;;;;19.80;81.60;;;;;;5113048;28;20340;-44
2022/12/15 16:25:32;;;;;;;;;;;19.80;81.70;;;;;;5098056;28;19935;-45
2022/12/15 16:27:58;;;;;;;;;;;19.90;81.80;;;;;;5116182;28;19908;-43
2022/12/15 16:30:24;;;;;;;;;;;19.90;81.60;;;;;;5089641;28;19951;-42
2022/12/15 16:32:50;;;;;;;;;;;19.90;81.50;;;;;;5077111;28;19908;-47
2022/12/15 16:35:16;;;;;;;;;;;19.90;81.40;;;;;;5078429;28;20435;-45
2022/12/15 16:37:45;;;;;;;;;;;19.90;81.40;;;;;;5116178;28;20358;-45
2022/12/15 16:40:17;;;;;;;;;;;19.90;81.30;;;;;;5097514;28;20274;-41
2022/12/15 16:42:45;;;;;;;;;;;19.90;81.40;;;;;;5096345;28;20307;-42
2022/12/15 16:45:16;;;;;;;;;;;19.90;81.50;;;;;;5095107;28;20289;-43
2022/12/15 16:47:42;;;;;;;;;;;19.90;81.50;;;;;;5094397;28;19912;-43
2022/12/15 16:50:11;;;;;;;;;;;19.90;81.50;;;;;;5094765;28;20379;-44